Airfield :
LOGIN :

Register | Disclaimer

   EN    FR    IT 

 










Legend :    VFR   Marginal VFR   IFR   Intensive IFR   Very Intensive IFR
Visi :
Ceiling :
>= 8 km
>= 3000ft
5 to 8 km
1000 to 3000 ft
1500m to 5 km
500 to 1000 ft
800 to 1500m
200 to 500 ft
< 800m
< 200 ft
Symbols :   Thunderstorms  Fog  Heavy snow  Heavy precipitations  Wind > 20 kt
SIGMETs :     Misc.  Thunderstorms  Icing  Turbulence  Mountain Waves  Volcanic Ashes






- Airport Elevation : 75 ft
- IATA code : YEO


EGDY - RNAS Yeovilton

CURRENT METAR :
  • 240450Z 26004KT 0100 FG VV/// 09/09 Q1004 RED

EXPIRED METARs :
  • 240413Z 21002KT 0200 FG BKN002 10/09 Q1004 RED
  • 240350Z AUTO 00000KT 0100 FG BKN001/// BKN090/// 10/10 Q1004
  • 240250Z AUTO 26001KT 0350 FG BKN001/// SCT090/// 11/10 Q1004

TAF TAF EGDY
Valid from the 24 at 06:00 until the 24 at 15:00 UTC


240515Z 2406/2415 25004KT 1000 BR OVC002
TEMPO 2406/2408 0200 FG OVC000
BECMG 2408/2410 9999 NSW FEW022
PROB40
TEMPO 2410/2413 -RA SCT010



MET'MAP, your aeronautical weather chart ! - Copyright ORBIFLY December 2007 - Disclaimer

ORBIFLY MET'MAP TEAM :

Programming & Development : Alexandra Zaïnal
Concept & Development : Baudouin d'Aumeries
Co-Development & Prog : Marc-Olivier Méhu
Technical & hardware support : Manuel Goepfert

Contact : metmap@orbifly.com




SOURCES & CREDITS :

   NOAA